Time;durP1;ratioP1;P1;durP2;ratioP2;P2;SDS_P1;SDS_P2;PMS_P1;PMS_P2;Temp;Humidity;BMP_temperature;BMP_pressure;BME280_temperature;BME280_humidity;BME280_pressure;Samples;Min_cycle;Max_cycle;Signal;HPM_P1;HPM_P2
2024/02/14 00:00:15;;;;;;;21.8;12.6;;;;;;;3.98;78.86;99201.666666667;;;;
2024/02/14 00:11:17;;;;;;;21.8;12.6;;;;;;;3.96;79.22;99206.666666667;;;;
2024/02/14 00:21:16;;;;;;;21.8;12.6;;;;;;;4;79.05;99220;;;;
2024/02/14 00:32:15;;;;;;;20.1;12.2;;;;;;;4;79.06;99226.666666667;;;;
2024/02/14 00:42:16;;;;;;;20.1;12.2;;;;;;;4.02;79.02;99231.666666667;;;;
2024/02/14 00:53:15;;;;;;;20.7;12.5;;;;;;;4.05;78.98;99231.666666667;;;;
2024/02/14 01:04:15;;;;;;;20.7;12.5;;;;;;;3.97;78.85;99231.666666667;;;;
2024/02/14 01:14:16;;;;;;;20.7;12.5;;;;;;;4.02;79.22;99250;;;;
2024/02/14 01:25:15;;;;;;;19.6;11.4;;;;;;;4.02;79.13;99250;;;;
2024/02/14 01:35:15;;;;;;;19.6;11.4;;;;;;;3.94;79.94;99248.333333333;;;;
2024/02/14 01:45:16;;;;;;;19.6;11.4;;;;;;;3.97;80;99241.666666667;;;;
2024/02/14 01:55:16;;;;;;;26.7;15;;;;;;;3.86;80.66;99238.333333333;;;;
2024/02/14 02:06:16;;;;;;;26.7;15;;;;;;;3.87;80.45;99231.666666667;;;;
2024/02/14 02:17:17;;;;;;;26.7;15;;;;;;;3.8;80.68;99231.666666667;;;;
2024/02/14 02:27:16;;;;;;;22.9;14.1;;;;;;;3.78;80.95;99226.666666667;;;;
2024/02/14 02:38:16;;;;;;;22.9;14.1;;;;;;;3.72;81.11;99231.666666667;;;;
2024/02/14 02:48:16;;;;;;;22.9;14.1;;;;;;;3.82;80.81;99228.333333333;;;;
2024/02/14 02:59:16;;;;;;;26.7;15.5;;;;;;;3.7;81.38;99236.666666667;;;;
2024/02/14 03:09:17;;;;;;;26.7;15.5;;;;;;;3.69;81.51;99245;;;;
2024/02/14 03:20:16;;;;;;;26.7;15.5;;;;;;;3.7;81.46;99251.666666667;;;;
2024/02/14 03:31:15;;;;;;;20.7;12.8;;;;;;;3.8;81;99251.666666667;;;;
2024/02/14 03:41:15;;;;;;;20.7;12.8;;;;;;;3.7;81.11;99261.666666667;;;;
2024/02/14 03:51:16;;;;;;;20.7;12.8;;;;;;;3.73;80.79;99266.666666667;;;;
2024/02/14 04:01:15;;;;;;;21.8;10;;;;;;;3.58;81.02;99261.666666667;;;;
2024/02/14 04:12:15;;;;;;;21.8;10;;;;;;;3.47;81.55;99266.666666667;;;;
2024/02/14 04:22:16;;;;;;;16.6;9.6;;;;;;;3.44;81.52;99276.666666667;;;;
2024/02/14 04:33:16;;;;;;;16.6;9.6;;;;;;;3.38;81.67;99280;;;;
2024/02/14 04:43:16;;;;;;;16.6;9.6;;;;;;;3.07;82.73;99278.333333333;;;;
2024/02/14 04:54:16;;;;;;;17.6;9.4;;;;;;;2.84;82.41;99286.666666667;;;;
2024/02/14 05:05:16;;;;;;;17.6;9.4;;;;;;;2.56;82.91;99281.666666667;;;;
2024/02/14 05:16:16;;;;;;;17.6;9.4;;;;;;;2.23;83.15;99293.333333333;;;;
2024/02/14 05:27:16;;;;;;;23.9;13;;;;;;;1.98;84.25;99295;;;;
2024/02/14 05:37:16;;;;;;;23.9;13;;;;;;;1.85;84.29;99293.333333333;;;;
2024/02/14 05:48:16;;;;;;;23.9;13;;;;;;;1.65;84.27;99303.333333333;;;;
2024/02/14 05:59:16;;;;;;;27.1;14.9;;;;;;;1.6;85.02;99311.666666667;;;;
2024/02/14 06:09:16;;;;;;;27.1;14.9;;;;;;;1.54;85.47;99315;;;;
2024/02/14 06:19:16;;;;;;;27.1;14.9;;;;;;;1.47;85.54;99318.333333333;;;;
2024/02/14 06:30:16;;;;;;;18.9;11;;;;;;;1.53;85.44;99321.666666667;;;;
2024/02/14 06:40:16;;;;;;;18.9;11;;;;;;;1.54;85.1;99321.666666667;;;;
2024/02/14 06:50:16;;;;;;;18.9;11;;;;;;;1.55;85.09;99325;;;;
2024/02/14 07:01:18;;;;;;;16;8.6;;;;;;;1.65;85.54;99321.666666667;;;;
2024/02/14 07:12:16;;;;;;;16;8.6;;;;;;;1.97;85.79;99335;;;;
2024/02/14 07:23:16;;;;;;;14.4;8.3;;;;;;;2.28;85.57;99345;;;;
2024/02/14 07:33:16;;;;;;;14.4;8.3;;;;;;;2.61;85.36;99336.666666667;;;;
2024/02/14 07:44:16;;;;;;;14.4;8.3;;;;;;;3.03;85.04;99335;;;;
2024/02/14 07:55:16;;;;;;;24.6;14.3;;;;;;;3.46;84.05;99343.333333333;;;;
2024/02/14 08:06:16;;;;;;;24.6;14.3;;;;;;;3.75;81.64;99341.666666667;;;;
2024/02/14 08:17:16;;;;;;;24.6;14.3;;;;;;;4.09;80.99;99335;;;;
2024/02/14 08:27:16;;;;;;;17.7;9.7;;;;;;;4.57;80.34;99330;;;;
2024/02/14 08:38:16;;;;;;;17.7;9.7;;;;;;;5;77.96;99331.666666667;;;;
2024/02/14 08:49:16;;;;;;;17.7;9.7;;;;;;;5.5;75.69;99333.333333333;;;;
2024/02/14 09:00:19;;;;;;;14.4;9;;;;;;;6;73.62;99333.333333333;;;;
2024/02/14 09:11:16;;;;;;;14.4;9;;;;;;;6.41;69.72;99330;;;;
2024/02/14 09:22:21;;;;;;;9;4.5;;;;;;;6.63;61.05;99318.333333333;;;;
2024/02/14 09:33:16;;;;;;;9;4.5;;;;;;;6.89;58.92;99323.333333333;;;;
2024/02/14 09:43:16;;;;;;;9;4.5;;;;;;;7.25;58.45;99328.333333333;;;;
2024/02/14 09:53:16;;;;;;;3.2;1.7;;;;;;;7.34;56.75;99321.666666667;;;;
2024/02/14 10:04:17;;;;;;;3.2;1.7;;;;;;;7.62;54.7;99316.666666667;;;;
2024/02/14 10:14:16;;;;;;;3.2;1.7;;;;;;;7.86;56.37;99316.666666667;;;;
2024/02/14 10:24:16;;;;;;;4.8;2;;;;;;;8.19;56.77;99310;;;;
2024/02/14 10:35:16;;;;;;;4.8;2;;;;;;;8.52;55.55;99290;;;;
2024/02/14 10:46:16;;;;;;;4.8;2;;;;;;;8.71;53.32;99291.666666667;;;;
2024/02/14 10:57:16;;;;;;;3.7;1.8;;;;;;;8.9;52.05;99295;;;;
2024/02/14 11:07:16;;;;;;;3.7;1.8;;;;;;;9.04;51.2;99286.666666667;;;;
2024/02/14 11:18:16;;;;;;;3.7;1.8;;;;;;;9.2;53.27;99271.666666667;;;;
2024/02/14 11:29:16;;;;;;;4.4;1.8;;;;;;;9.41;51.07;99258.333333333;;;;
2024/02/14 11:40:16;;;;;;;4.4;1.8;;;;;;;9.94;50.45;99246.666666667;;;;
2024/02/14 11:50:16;;;;;;;4.4;1.8;;;;;;;9.9;52.1;99235;;;;
2024/02/14 12:01:17;;;;;;;3.4;1.6;;;;;;;9.99;49.77;99233.333333333;;;;
2024/02/14 12:12:16;;;;;;;3.4;1.6;;;;;;;10.23;48.37;99230;;;;
2024/02/14 12:22:17;;;;;;;7.1;2.9;;;;;;;10.13;46.95;99225;;;;
2024/02/14 12:33:16;;;;;;;7.1;2.9;;;;;;;10.07;46.81;99208.333333333;;;;
2024/02/14 12:44:16;;;;;;;7.1;2.9;;;;;;;10.12;47.29;99208.333333333;;;;
2024/02/14 12:54:16;;;;;;;6.6;2.6;;;;;;;10.07;46.38;99210;;;;
2024/02/14 13:05:16;;;;;;;6.6;2.6;;;;;;;10.04;47.16;99215;;;;
2024/02/14 13:15:16;;;;;;;6.6;2.6;;;;;;;10.03;46.35;99213.333333333;;;;
2024/02/14 13:25:16;;;;;;;5.9;3.3;;;;;;;10.08;47.46;99210;;;;
2024/02/14 13:35:16;;;;;;;5.9;3.3;;;;;;;10.19;46.94;99198.333333333;;;;
2024/02/14 13:46:16;;;;;;;5.9;3.3;;;;;;;10.02;46.86;99201.666666667;;;;
2024/02/14 13:57:16;;;;;;;7.2;3.5;;;;;;;9.95;48.97;99191.666666667;;;;
2024/02/14 14:08:16;;;;;;;7.2;3.5;;;;;;;9.86;48.25;99186.666666667;;;;
2024/02/14 14:18:16;;;;;;;7.2;3.5;;;;;;;9.97;49.18;99188.333333333;;;;
2024/02/14 14:28:17;;;;;;;5.7;3.4;;;;;;;9.71;49.18;99188.333333333;;;;
2024/02/14 14:39:16;;;;;;;5.7;3.4;;;;;;;9.45;49.74;99185;;;;
2024/02/14 14:50:17;;;;;;;5.7;3.4;;;;;;;9.17;50.3;99180;;;;
2024/02/14 15:01:16;;;;;;;7.3;3.7;;;;;;;9.03;51.35;99178.333333333;;;;
2024/02/14 15:12:16;;;;;;;7.3;3.7;;;;;;;8.99;52.35;99186.666666667;;;;
2024/02/14 15:23:16;;;;;;;8.6;5.3;;;;;;;8.96;52.69;99185;;;;
2024/02/14 15:34:16;;;;;;;8.6;5.3;;;;;;;8.72;52.79;99176.666666667;;;;
2024/02/14 15:44:16;;;;;;;8.6;5.3;;;;;;;8.43;54.18;99171.666666667;;;;
2024/02/14 15:55:16;;;;;;;26.3;14;;;;;;;8.03;55.37;99168.333333333;;;;
2024/02/14 16:05:17;;;;;;;26.3;14;;;;;;;7.58;56.05;99166.666666667;;;;
2024/02/14 16:16:16;;;;;;;26.3;14;;;;;;;7.02;57.29;99183.333333333;;;;
2024/02/14 16:27:17;;;;;;;7.3;3.4;;;;;;;6.37;60.09;99183.333333333;;;;
2024/02/14 16:37:16;;;;;;;7.3;3.4;;;;;;;5.99;61.48;99201.666666667;;;;
2024/02/14 16:48:16;;;;;;;7.3;3.4;;;;;;;5.56;63.35;99211.666666667;;;;
2024/02/14 16:58:17;;;;;;;11.5;5.8;;;;;;;5.21;64.43;99215;;;;
2024/02/14 17:09:16;;;;;;;11.5;5.8;;;;;;;4.94;65.65;99210;;;;
2024/02/14 17:20:18;;;;;;;11.5;5.8;;;;;;;4.66;66.35;99216.666666667;;;;
2024/02/14 17:30:19;;;;;;;19.5;9.6;;;;;;;4.41;66.95;99218.333333333;;;;
2024/02/14 17:40:16;;;;;;;19.5;9.6;;;;;;;4.27;67.5;99211.666666667;;;;
2024/02/14 17:51:16;;;;;;;13.3;6.7;;;;;;;4.21;67.96;99210;;;;
2024/02/14 18:02:16;;;;;;;13.3;6.7;;;;;;;4.28;67.42;99208.333333333;;;;
2024/02/14 18:12:16;;;;;;;13.3;6.7;;;;;;;4.1;67.93;99210;;;;
2024/02/14 18:23:17;;;;;;;16.2;9.4;;;;;;;3.88;68.69;99205;;;;
2024/02/14 18:33:16;;;;;;;16.2;9.4;;;;;;;3.77;70.09;99205;;;;
2024/02/14 18:43:16;;;;;;;16.2;9.4;;;;;;;3.72;70.9;99200;;;;
2024/02/14 18:54:16;;;;;;;21.1;13.2;;;;;;;3.79;71.67;99196.666666667;;;;
2024/02/14 19:04:16;;;;;;;21.1;13.2;;;;;;;3.88;72.51;99208.333333333;;;;
2024/02/14 19:15:18;;;;;;;21.1;13.2;;;;;;;3.97;72.69;99216.666666667;;;;
2024/02/14 19:25:16;;;;;;;25.1;14.3;;;;;;;4.1;72.69;99218.333333333;;;;
2024/02/14 19:36:16;;;;;;;25.1;14.3;;;;;;;4.17;73.72;99221.666666667;;;;
2024/02/14 19:47:16;;;;;;;25.1;14.3;;;;;;;4.24;73.74;99221.666666667;;;;
2024/02/14 19:57:16;;;;;;;30.2;18.9;;;;;;;4.3;73.54;99221.666666667;;;;
2024/02/14 20:07:16;;;;;;;30.2;18.9;;;;;;;4.39;73.46;99221.666666667;;;;
2024/02/14 20:18:16;;;;;;;30.2;18.9;;;;;;;4.45;73.75;99220;;;;
2024/02/14 20:28:16;;;;;;;25.1;15.1;;;;;;;4.62;73.06;99220;;;;
2024/02/14 20:38:16;;;;;;;25.1;15.1;;;;;;;4.64;73.04;99223.333333333;;;;
2024/02/14 20:49:16;;;;;;;25.1;15.1;;;;;;;4.72;72.25;99226.666666667;;;;
2024/02/14 20:59:16;;;;;;;26.6;15.9;;;;;;;4.6;73.74;99216.666666667;;;;
2024/02/14 21:09:16;;;;;;;26.6;15.9;;;;;;;4.74;73.3;99210;;;;
2024/02/14 21:19:16;;;;;;;26.6;15.9;;;;;;;4.79;73.18;99211.666666667;;;;
2024/02/14 21:29:16;;;;;;;23.2;13.8;;;;;;;4.81;73.08;99203.333333333;;;;
2024/02/14 21:39:16;;;;;;;23.2;13.8;;;;;;;4.86;73.21;99205;;;;
2024/02/14 21:50:16;;;;;;;24.4;15.2;;;;;;;4.87;72.53;99200;;;;
2024/02/14 22:00:16;;;;;;;24.4;15.2;;;;;;;4.79;72.73;99196.666666667;;;;
2024/02/14 22:10:16;;;;;;;24.4;15.2;;;;;;;4.8;72.86;99208.333333333;;;;
2024/02/14 22:21:16;;;;;;;29.2;17.6;;;;;;;4.79;73.67;99205;;;;
2024/02/14 22:31:16;;;;;;;29.2;17.6;;;;;;;4.94;73.63;99206.666666667;;;;
2024/02/14 22:42:16;;;;;;;29.2;17.6;;;;;;;5.18;73.68;99211.666666667;;;;
2024/02/14 22:53:16;;;;;;;30.4;14.7;;;;;;;5.3;73.63;99206.666666667;;;;
2024/02/14 23:04:17;;;;;;;30.4;14.7;;;;;;;5.35;73.33;99206.666666667;;;;
2024/02/14 23:15:17;;;;;;;30.4;14.7;;;;;;;5.48;73.62;99208.333333333;;;;
2024/02/14 23:26:16;;;;;;;24.6;15.7;;;;;;;5.58;73.24;99205;;;;
2024/02/14 23:36:16;;;;;;;24.6;15.7;;;;;;;5.61;72.92;99210;;;;
2024/02/14 23:46:16;;;;;;;24.6;15.7;;;;;;;5.54;72.93;99208.333333333;;;;
2024/02/14 23:56:16;;;;;;;24.4;15.3;;;;;;;5.31;73.49;99208.333333333;;;;
